sensor_id;sensor_type;location;lat;lon;timestamp;temperature;humidity
48686;DHT22;34485;51.536;3.816;2022-08-21T00:02:21;16.30;99.70
48686;DHT22;34485;51.536;3.816;2022-08-21T00:04:47;16.30;99.50
48686;DHT22;34485;51.536;3.816;2022-08-21T00:07:13;16.30;99.70
48686;DHT22;34485;51.536;3.816;2022-08-21T00:09:39;16.30;99.70
48686;DHT22;34485;51.536;3.816;2022-08-21T00:12:05;16.20;99.90
48686;DHT22;34485;51.536;3.816;2022-08-21T00:14:32;16.20;99.90
48686;DHT22;34485;51.536;3.816;2022-08-21T00:16:58;16.20;99.90
48686;DHT22;34485;51.536;3.816;2022-08-21T00:19:23;16.20;99.90
48686;DHT22;34485;51.536;3.816;2022-08-21T00:21:51;16.20;99.90
48686;DHT22;34485;51.536;3.816;2022-08-21T00:24:18;16.20;99.90
48686;DHT22;34485;51.536;3.816;2022-08-21T00:26:44;16.20;99.90
48686;DHT22;34485;51.536;3.816;2022-08-21T00:29:09;16.10;99.90
48686;DHT22;34485;51.536;3.816;2022-08-21T00:31:35;16.10;99.90
48686;DHT22;34485;51.536;3.816;2022-08-21T00:34:01;16.10;99.90
48686;DHT22;34485;51.536;3.816;2022-08-21T00:36:28;16.10;99.90
48686;DHT22;34485;51.536;3.816;2022-08-21T00:38:53;16.10;99.90
48686;DHT22;34485;51.536;3.816;2022-08-21T00:41:19;16.00;99.90
48686;DHT22;34485;51.536;3.816;2022-08-21T00:43:44;16.00;99.90
48686;DHT22;34485;51.536;3.816;2022-08-21T00:46:10;16.00;99.90
48686;DHT22;34485;51.536;3.816;2022-08-21T00:48:36;15.90;99.90
48686;DHT22;34485;51.536;3.816;2022-08-21T00:51:13;15.90;99.90
48686;DHT22;34485;51.536;3.816;2022-08-21T00:53:44;15.80;99.90
48686;DHT22;34485;51.536;3.816;2022-08-21T00:56:11;15.80;99.90
48686;DHT22;34485;51.536;3.816;2022-08-21T00:58:39;15.80;99.90
48686;DHT22;34485;51.536;3.816;2022-08-21T01:01:07;15.80;99.90
48686;DHT22;34485;51.536;3.816;2022-08-21T01:03:34;15.80;99.90
48686;DHT22;34485;51.536;3.816;2022-08-21T01:06:01;15.80;99.90
48686;DHT22;34485;51.536;3.816;2022-08-21T01:08:28;15.80;99.90
48686;DHT22;34485;51.536;3.816;2022-08-21T01:10:54;15.90;99.90
48686;DHT22;34485;51.536;3.816;2022-08-21T01:13:21;15.80;99.90
48686;DHT22;34485;51.536;3.816;2022-08-21T01:15:50;15.90;99.90
48686;DHT22;34485;51.536;3.816;2022-08-21T01:18:18;15.90;99.90
48686;DHT22;34485;51.536;3.816;2022-08-21T01:21:06;15.90;99.90
48686;DHT22;34485;51.536;3.816;2022-08-21T01:23:33;15.90;99.90
48686;DHT22;34485;51.536;3.816;2022-08-21T01:25:59;15.90;99.90
48686;DHT22;34485;51.536;3.816;2022-08-21T01:28:24;15.90;99.90
48686;DHT22;34485;51.536;3.816;2022-08-21T01:30:53;15.90;99.90
48686;DHT22;34485;51.536;3.816;2022-08-21T01:33:22;15.90;99.90
48686;DHT22;34485;51.536;3.816;2022-08-21T01:35:49;15.80;99.90
48686;DHT22;34485;51.536;3.816;2022-08-21T01:38:15;15.80;99.90
48686;DHT22;34485;51.536;3.816;2022-08-21T01:40:41;15.80;99.90
48686;DHT22;34485;51.536;3.816;2022-08-21T01:43:07;15.80;99.90
48686;DHT22;34485;51.536;3.816;2022-08-21T01:45:33;15.70;99.90
48686;DHT22;34485;51.536;3.816;2022-08-21T01:47:58;15.70;99.90
48686;DHT22;34485;51.536;3.816;2022-08-21T01:50:24;15.70;99.90
48686;DHT22;34485;51.536;3.816;2022-08-21T01:52:50;15.70;99.90
48686;DHT22;34485;51.536;3.816;2022-08-21T01:55:18;15.60;99.90
48686;DHT22;34485;51.536;3.816;2022-08-21T01:57:44;15.60;99.90
48686;DHT22;34485;51.536;3.816;2022-08-21T02:00:12;15.60;99.90
48686;DHT22;34485;51.536;3.816;2022-08-21T02:02:39;15.50;99.90
48686;DHT22;34485;51.536;3.816;2022-08-21T02:05:07;15.60;99.90
48686;DHT22;34485;51.536;3.816;2022-08-21T02:07:44;15.50;99.90
48686;DHT22;34485;51.536;3.816;2022-08-21T02:10:13;15.50;99.90
48686;DHT22;34485;51.536;3.816;2022-08-21T02:12:39;15.50;99.90
48686;DHT22;34485;51.536;3.816;2022-08-21T02:15:06;15.40;99.90
48686;DHT22;34485;51.536;3.816;2022-08-21T02:17:47;15.40;99.90
48686;DHT22;34485;51.536;3.816;2022-08-21T02:20:18;15.40;99.90
48686;DHT22;34485;51.536;3.816;2022-08-21T02:22:44;15.30;99.90
48686;DHT22;34485;51.536;3.816;2022-08-21T02:25:10;15.30;99.90
48686;DHT22;34485;51.536;3.816;2022-08-21T02:27:41;15.30;99.90
48686;DHT22;34485;51.536;3.816;2022-08-21T02:30:11;15.30;99.90
48686;DHT22;34485;51.536;3.816;2022-08-21T02:32:37;15.20;99.90
48686;DHT22;34485;51.536;3.816;2022-08-21T02:35:03;15.20;99.90
48686;DHT22;34485;51.536;3.816;2022-08-21T02:37:28;15.20;99.90
48686;DHT22;34485;51.536;3.816;2022-08-21T02:39:54;15.10;99.90
48686;DHT22;34485;51.536;3.816;2022-08-21T02:42:20;15.10;99.90
48686;DHT22;34485;51.536;3.816;2022-08-21T02:44:45;15.20;99.90
48686;DHT22;34485;51.536;3.816;2022-08-21T02:47:11;15.20;99.90
48686;DHT22;34485;51.536;3.816;2022-08-21T02:49:36;15.10;99.90
48686;DHT22;34485;51.536;3.816;2022-08-21T02:52:02;15.10;99.90
48686;DHT22;34485;51.536;3.816;2022-08-21T02:54:28;15.20;99.90
48686;DHT22;34485;51.536;3.816;2022-08-21T02:56:53;15.10;99.90
48686;DHT22;34485;51.536;3.816;2022-08-21T02:59:19;15.10;99.90
48686;DHT22;34485;51.536;3.816;2022-08-21T03:01:44;15.10;99.90
48686;DHT22;34485;51.536;3.816;2022-08-21T03:04:10;15.10;99.90
48686;DHT22;34485;51.536;3.816;2022-08-21T03:06:36;15.10;99.90
48686;DHT22;34485;51.536;3.816;2022-08-21T03:09:02;15.00;99.90
48686;DHT22;34485;51.536;3.816;2022-08-21T03:11:28;15.00;99.90
48686;DHT22;34485;51.536;3.816;2022-08-21T03:13:53;15.00;99.90
48686;DHT22;34485;51.536;3.816;2022-08-21T03:16:19;15.10;99.90
48686;DHT22;34485;51.536;3.816;2022-08-21T03:18:46;15.00;99.90
48686;DHT22;34485;51.536;3.816;2022-08-21T03:21:11;15.00;99.90
48686;DHT22;34485;51.536;3.816;2022-08-21T03:23:38;15.10;99.90
48686;DHT22;34485;51.536;3.816;2022-08-21T03:26:05;15.00;99.90
48686;DHT22;34485;51.536;3.816;2022-08-21T03:28:31;15.00;99.90
48686;DHT22;34485;51.536;3.816;2022-08-21T03:30:57;15.00;99.90
48686;DHT22;34485;51.536;3.816;2022-08-21T03:33:24;15.00;99.90
48686;DHT22;34485;51.536;3.816;2022-08-21T03:36:08;14.90;99.90
48686;DHT22;34485;51.536;3.816;2022-08-21T03:38:35;14.90;99.90
48686;DHT22;34485;51.536;3.816;2022-08-21T03:41:02;14.90;99.90
48686;DHT22;34485;51.536;3.816;2022-08-21T03:43:28;14.90;99.90
48686;DHT22;34485;51.536;3.816;2022-08-21T03:45:54;14.90;99.90
48686;DHT22;34485;51.536;3.816;2022-08-21T03:48:19;14.90;99.90
48686;DHT22;34485;51.536;3.816;2022-08-21T03:50:45;14.90;99.90
48686;DHT22;34485;51.536;3.816;2022-08-21T03:53:14;14.90;99.90
48686;DHT22;34485;51.536;3.816;2022-08-21T03:55:40;14.80;99.90
48686;DHT22;34485;51.536;3.816;2022-08-21T03:58:06;14.80;99.90
48686;DHT22;34485;51.536;3.816;2022-08-21T04:00:32;14.80;99.90
48686;DHT22;34485;51.536;3.816;2022-08-21T04:02:58;14.80;99.90
48686;DHT22;34485;51.536;3.816;2022-08-21T04:05:24;14.80;99.90
48686;DHT22;34485;51.536;3.816;2022-08-21T04:07:57;14.80;99.90
48686;DHT22;34485;51.536;3.816;2022-08-21T04:10:23;14.80;99.90
48686;DHT22;34485;51.536;3.816;2022-08-21T04:12:49;14.80;99.90
48686;DHT22;34485;51.536;3.816;2022-08-21T04:15:15;14.80;99.90
48686;DHT22;34485;51.536;3.816;2022-08-21T04:17:41;14.80;99.90
48686;DHT22;34485;51.536;3.816;2022-08-21T04:20:07;14.80;99.90
48686;DHT22;34485;51.536;3.816;2022-08-21T04:22:33;14.80;99.90
48686;DHT22;34485;51.536;3.816;2022-08-21T04:24:58;14.80;99.90
48686;DHT22;34485;51.536;3.816;2022-08-21T04:27:24;14.80;99.90
48686;DHT22;34485;51.536;3.816;2022-08-21T04:29:50;14.80;99.90
48686;DHT22;34485;51.536;3.816;2022-08-21T04:32:24;14.80;99.90
48686;DHT22;34485;51.536;3.816;2022-08-21T04:34:50;14.80;99.90
48686;DHT22;34485;51.536;3.816;2022-08-21T04:37:16;14.80;99.90
48686;DHT22;34485;51.536;3.816;2022-08-21T04:39:42;14.80;99.90
48686;DHT22;34485;51.536;3.816;2022-08-21T04:42:08;14.80;99.90
48686;DHT22;34485;51.536;3.816;2022-08-21T04:44:34;14.80;99.90
48686;DHT22;34485;51.536;3.816;2022-08-21T04:47:00;14.90;99.90
48686;DHT22;34485;51.536;3.816;2022-08-21T04:49:25;14.90;99.90
48686;DHT22;34485;51.536;3.816;2022-08-21T04:51:51;14.90;99.90
48686;DHT22;34485;51.536;3.816;2022-08-21T04:54:20;14.90;99.90
48686;DHT22;34485;51.536;3.816;2022-08-21T04:56:53;14.90;99.90
48686;DHT22;34485;51.536;3.816;2022-08-21T04:59:26;14.90;99.90
48686;DHT22;34485;51.536;3.816;2022-08-21T05:01:53;14.90;99.90
48686;DHT22;34485;51.536;3.816;2022-08-21T05:04:25;15.00;99.90
48686;DHT22;34485;51.536;3.816;2022-08-21T05:06:54;15.10;99.90
48686;DHT22;34485;51.536;3.816;2022-08-21T05:09:20;15.10;99.90
48686;DHT22;34485;51.536;3.816;2022-08-21T05:11:47;15.10;99.90
48686;DHT22;34485;51.536;3.816;2022-08-21T05:14:14;15.20;99.90
48686;DHT22;34485;51.536;3.816;2022-08-21T05:16:40;15.20;99.90
48686;DHT22;34485;51.536;3.816;2022-08-21T05:19:07;15.20;99.90
48686;DHT22;34485;51.536;3.816;2022-08-21T05:21:40;15.20;99.90
48686;DHT22;34485;51.536;3.816;2022-08-21T05:24:06;15.20;99.90
48686;DHT22;34485;51.536;3.816;2022-08-21T05:26:32;15.20;99.90
48686;DHT22;34485;51.536;3.816;2022-08-21T05:28:58;15.30;99.90
48686;DHT22;34485;51.536;3.816;2022-08-21T05:31:24;15.40;99.90
48686;DHT22;34485;51.536;3.816;2022-08-21T05:33:50;15.40;99.90
48686;DHT22;34485;51.536;3.816;2022-08-21T05:36:17;15.50;99.90
48686;DHT22;34485;51.536;3.816;2022-08-21T05:38:42;15.50;99.90
48686;DHT22;34485;51.536;3.816;2022-08-21T05:41:09;15.60;99.90
48686;DHT22;34485;51.536;3.816;2022-08-21T05:43:35;15.70;99.90
48686;DHT22;34485;51.536;3.816;2022-08-21T05:46:03;15.70;99.90
48686;DHT22;34485;51.536;3.816;2022-08-21T05:48:29;15.70;99.90
48686;DHT22;34485;51.536;3.816;2022-08-21T05:50:55;15.80;99.90
48686;DHT22;34485;51.536;3.816;2022-08-21T05:53:22;15.90;99.90
48686;DHT22;34485;51.536;3.816;2022-08-21T05:55:48;15.90;99.90
48686;DHT22;34485;51.536;3.816;2022-08-21T05:58:16;16.00;99.90
48686;DHT22;34485;51.536;3.816;2022-08-21T06:00:43;16.10;99.90
48686;DHT22;34485;51.536;3.816;2022-08-21T06:03:14;16.10;99.90
48686;DHT22;34485;51.536;3.816;2022-08-21T06:05:42;16.20;99.90
48686;DHT22;34485;51.536;3.816;2022-08-21T06:08:07;16.20;99.90
48686;DHT22;34485;51.536;3.816;2022-08-21T06:10:33;16.30;99.90
48686;DHT22;34485;51.536;3.816;2022-08-21T06:12:59;16.40;99.90
48686;DHT22;34485;51.536;3.816;2022-08-21T06:15:24;16.40;99.90
48686;DHT22;34485;51.536;3.816;2022-08-21T06:17:50;16.50;99.90
48686;DHT22;34485;51.536;3.816;2022-08-21T06:20:17;16.60;99.90
48686;DHT22;34485;51.536;3.816;2022-08-21T06:22:42;16.70;99.90
48686;DHT22;34485;51.536;3.816;2022-08-21T06:25:08;16.80;99.90
48686;DHT22;34485;51.536;3.816;2022-08-21T06:27:34;16.80;99.90
48686;DHT22;34485;51.536;3.816;2022-08-21T06:30:00;16.90;99.90
48686;DHT22;34485;51.536;3.816;2022-08-21T06:32:26;17.00;99.90
48686;DHT22;34485;51.536;3.816;2022-08-21T06:34:51;17.10;99.90
48686;DHT22;34485;51.536;3.816;2022-08-21T06:37:17;17.20;99.90
48686;DHT22;34485;51.536;3.816;2022-08-21T06:39:42;17.30;99.90
48686;DHT22;34485;51.536;3.816;2022-08-21T06:42:14;17.40;99.90
48686;DHT22;34485;51.536;3.816;2022-08-21T06:44:39;17.50;99.90
48686;DHT22;34485;51.536;3.816;2022-08-21T06:47:05;17.60;99.90
48686;DHT22;34485;51.536;3.816;2022-08-21T06:49:31;17.80;99.90
48686;DHT22;34485;51.536;3.816;2022-08-21T06:51:56;17.80;99.90
48686;DHT22;34485;51.536;3.816;2022-08-21T06:54:22;17.90;99.90
48686;DHT22;34485;51.536;3.816;2022-08-21T06:56:47;18.10;99.90
48686;DHT22;34485;51.536;3.816;2022-08-21T06:59:13;18.00;99.90
48686;DHT22;34485;51.536;3.816;2022-08-21T07:01:39;18.10;99.90
48686;DHT22;34485;51.536;3.816;2022-08-21T07:04:04;18.20;99.90
48686;DHT22;34485;51.536;3.816;2022-08-21T07:06:30;18.40;99.90
48686;DHT22;34485;51.536;3.816;2022-08-21T07:08:56;18.50;99.90
48686;DHT22;34485;51.536;3.816;2022-08-21T07:11:23;18.70;99.90
48686;DHT22;34485;51.536;3.816;2022-08-21T07:13:50;18.80;99.90
48686;DHT22;34485;51.536;3.816;2022-08-21T07:16:18;18.90;99.90
48686;DHT22;34485;51.536;3.816;2022-08-21T07:18:44;19.20;99.90
48686;DHT22;34485;51.536;3.816;2022-08-21T07:21:10;19.30;99.90
48686;DHT22;34485;51.536;3.816;2022-08-21T07:23:46;19.40;99.90
48686;DHT22;34485;51.536;3.816;2022-08-21T07:26:13;19.60;99.90
48686;DHT22;34485;51.536;3.816;2022-08-21T07:28:39;19.80;99.70
48686;DHT22;34485;51.536;3.816;2022-08-21T07:31:05;20.30;98.80
48686;DHT22;34485;51.536;3.816;2022-08-21T07:33:34;21.00;95.70
48686;DHT22;34485;51.536;3.816;2022-08-21T07:36:00;21.70;92.40
48686;DHT22;34485;51.536;3.816;2022-08-21T07:38:26;22.60;94.80
48686;DHT22;34485;51.536;3.816;2022-08-21T07:40:54;23.30;83.40
48686;DHT22;34485;51.536;3.816;2022-08-21T07:43:21;23.90;80.30
48686;DHT22;34485;51.536;3.816;2022-08-21T07:45:47;24.50;73.90
48686;DHT22;34485;51.536;3.816;2022-08-21T07:50:41;25.80;70.30
48686;DHT22;34485;51.536;3.816;2022-08-21T07:53:07;26.30;64.80
48686;DHT22;34485;51.536;3.816;2022-08-21T07:55:33;26.80;61.60
48686;DHT22;34485;51.536;3.816;2022-08-21T07:57:59;27.00;59.00
48686;DHT22;34485;51.536;3.816;2022-08-21T08:02:53;27.10;65.80
48686;DHT22;34485;51.536;3.816;2022-08-21T08:05:22;27.10;57.90
48686;DHT22;34485;51.536;3.816;2022-08-21T08:07:48;27.00;57.00
48686;DHT22;34485;51.536;3.816;2022-08-21T08:10:14;27.10;58.30
48686;DHT22;34485;51.536;3.816;2022-08-21T08:12:41;27.20;57.80
48686;DHT22;34485;51.536;3.816;2022-08-21T08:15:10;27.20;57.00
48686;DHT22;34485;51.536;3.816;2022-08-21T08:17:36;27.60;56.80
48686;DHT22;34485;51.536;3.816;2022-08-21T08:20:07;27.90;96.50
48686;DHT22;34485;51.536;3.816;2022-08-21T08:22:34;28.00;54.40
48686;DHT22;34485;51.536;3.816;2022-08-21T08:25:01;27.90;54.10
48686;DHT22;34485;51.536;3.816;2022-08-21T08:27:27;27.90;62.00
48686;DHT22;34485;51.536;3.816;2022-08-21T08:29:53;28.40;67.20
48686;DHT22;34485;51.536;3.816;2022-08-21T08:34:45;29.50;49.90
48686;DHT22;34485;51.536;3.816;2022-08-21T08:37:12;29.80;49.30
48686;DHT22;34485;51.536;3.816;2022-08-21T08:42:13;30.00;99.90
48686;DHT22;34485;51.536;3.816;2022-08-21T08:44:41;30.10;47.90
48686;DHT22;34485;51.536;3.816;2022-08-21T08:47:08;30.60;48.40
48686;DHT22;34485;51.536;3.816;2022-08-21T08:55:13;31.50;42.10
48686;DHT22;34485;51.536;3.816;2022-08-21T08:57:46;31.30;42.80
48686;DHT22;34485;51.536;3.816;2022-08-21T09:00:14;30.60;43.50
48686;DHT22;34485;51.536;3.816;2022-08-21T09:02:42;30.10;44.50
48686;DHT22;34485;51.536;3.816;2022-08-21T09:05:24;29.50;45.70
48686;DHT22;34485;51.536;3.816;2022-08-21T09:08:22;29.40;46.00
48686;DHT22;34485;51.536;3.816;2022-08-21T09:18:56;29.70;43.80
48686;DHT22;34485;51.536;3.816;2022-08-21T09:27:05;30.60;40.90
48686;DHT22;34485;51.536;3.816;2022-08-21T09:29:35;30.20;41.30
48686;DHT22;34485;51.536;3.816;2022-08-21T09:32:03;29.50;42.90
48686;DHT22;34485;51.536;3.816;2022-08-21T09:34:34;28.80;48.10
48686;DHT22;34485;51.536;3.816;2022-08-21T09:37:01;28.00;46.20
48686;DHT22;34485;51.536;3.816;2022-08-21T09:39:30;27.80;46.70
48686;DHT22;34485;51.536;3.816;2022-08-21T09:42:01;27.90;47.30
48686;DHT22;34485;51.536;3.816;2022-08-21T09:44:30;28.20;56.50
48686;DHT22;34485;51.536;3.816;2022-08-21T09:46:57;28.60;45.50
48686;DHT22;34485;51.536;3.816;2022-08-21T09:49:30;29.30;45.50
48686;DHT22;34485;51.536;3.816;2022-08-21T09:51:57;30.20;43.80
48686;DHT22;34485;51.536;3.816;2022-08-21T09:54:30;31.00;41.50
48686;DHT22;34485;51.536;3.816;2022-08-21T09:57:18;31.60;40.60
48686;DHT22;34485;51.536;3.816;2022-08-21T10:00:29;32.40;52.00
48686;DHT22;34485;51.536;3.816;2022-08-21T10:03:11;33.50;37.20
48686;DHT22;34485;51.536;3.816;2022-08-21T10:05:38;34.40;36.30
48686;DHT22;34485;51.536;3.816;2022-08-21T10:08:04;34.80;34.50
48686;DHT22;34485;51.536;3.816;2022-08-21T10:10:36;34.40;34.10
48686;DHT22;34485;51.536;3.816;2022-08-21T10:13:13;34.10;34.70
48686;DHT22;34485;51.536;3.816;2022-08-21T10:21:30;31.10;38.30
48686;DHT22;34485;51.536;3.816;2022-08-21T10:24:24;30.50;40.70
48686;DHT22;34485;51.536;3.816;2022-08-21T10:29:59;31.00;39.50
48686;DHT22;34485;51.536;3.816;2022-08-21T10:40:38;34.30;33.60
48686;DHT22;34485;51.536;3.816;2022-08-21T10:48:19;33.90;84.40
48686;DHT22;34485;51.536;3.816;2022-08-21T10:50:52;33.10;34.50
48686;DHT22;34485;51.536;3.816;2022-08-21T10:53:22;32.60;36.50
48686;DHT22;34485;51.536;3.816;2022-08-21T10:55:59;32.70;36.50
48686;DHT22;34485;51.536;3.816;2022-08-21T10:58:29;33.10;34.30
48686;DHT22;34485;51.536;3.816;2022-08-21T11:01:05;33.50;34.30
48686;DHT22;34485;51.536;3.816;2022-08-21T11:03:39;33.70;33.60
48686;DHT22;34485;51.536;3.816;2022-08-21T11:06:09;33.80;32.40
48686;DHT22;34485;51.536;3.816;2022-08-21T11:08:42;34.10;71.40
48686;DHT22;34485;51.536;3.816;2022-08-21T11:14:03;34.20;31.60
48686;DHT22;34485;51.536;3.816;2022-08-21T11:17:13;34.50;30.90
48686;DHT22;34485;51.536;3.816;2022-08-21T11:19:47;34.20;30.40
48686;DHT22;34485;51.536;3.816;2022-08-21T11:22:53;33.90;32.00
48686;DHT22;34485;51.536;3.816;2022-08-21T11:25:30;33.50;32.10
48686;DHT22;34485;51.536;3.816;2022-08-21T11:28:02;33.40;33.70
48686;DHT22;34485;51.536;3.816;2022-08-21T11:30:39;33.40;32.90
48686;DHT22;34485;51.536;3.816;2022-08-21T11:38:42;34.20;31.70
48686;DHT22;34485;51.536;3.816;2022-08-21T11:41:20;34.10;32.60
48686;DHT22;34485;51.536;3.816;2022-08-21T11:44:02;33.80;30.90
48686;DHT22;34485;51.536;3.816;2022-08-21T12:00:35;31.00;37.00
48686;DHT22;34485;51.536;3.816;2022-08-21T12:03:14;30.40;38.00
48686;DHT22;34485;51.536;3.816;2022-08-21T12:08:13;28.60;39.70
48686;DHT22;34485;51.536;3.816;2022-08-21T12:11:04;29.00;41.50
48686;DHT22;34485;51.536;3.816;2022-08-21T12:13:33;28.60;42.20
48686;DHT22;34485;51.536;3.816;2022-08-21T12:16:06;28.40;43.50
48686;DHT22;34485;51.536;3.816;2022-08-21T12:18:33;28.40;44.00
48686;DHT22;34485;51.536;3.816;2022-08-21T12:23:29;28.40;41.90
48686;DHT22;34485;51.536;3.816;2022-08-21T12:26:09;28.30;42.40
48686;DHT22;34485;51.536;3.816;2022-08-21T12:28:36;28.40;43.50
48686;DHT22;34485;51.536;3.816;2022-08-21T12:31:02;28.30;43.60
48686;DHT22;34485;51.536;3.816;2022-08-21T12:33:35;28.10;45.80
48686;DHT22;34485;51.536;3.816;2022-08-21T12:36:11;28.00;43.70
48686;DHT22;34485;51.536;3.816;2022-08-21T12:41:20;27.70;44.00
48686;DHT22;34485;51.536;3.816;2022-08-21T12:43:53;27.60;44.80
48686;DHT22;34485;51.536;3.816;2022-08-21T12:46:37;27.60;45.30
48686;DHT22;34485;51.536;3.816;2022-08-21T12:49:12;27.50;46.10
48686;DHT22;34485;51.536;3.816;2022-08-21T12:51:56;27.40;44.70
48686;DHT22;34485;51.536;3.816;2022-08-21T12:54:29;27.20;44.50
48686;DHT22;34485;51.536;3.816;2022-08-21T12:57:00;27.20;45.70
48686;DHT22;34485;51.536;3.816;2022-08-21T12:59:26;27.20;46.60
48686;DHT22;34485;51.536;3.816;2022-08-21T13:01:53;27.10;47.00
48686;DHT22;34485;51.536;3.816;2022-08-21T13:04:36;27.00;47.40
48686;DHT22;34485;51.536;3.816;2022-08-21T13:07:07;27.00;47.00
48686;DHT22;34485;51.536;3.816;2022-08-21T13:09:38;27.00;48.00
48686;DHT22;34485;51.536;3.816;2022-08-21T13:12:07;27.10;47.10
48686;DHT22;34485;51.536;3.816;2022-08-21T13:14:37;27.00;46.50
48686;DHT22;34485;51.536;3.816;2022-08-21T13:17:05;27.00;45.80
48686;DHT22;34485;51.536;3.816;2022-08-21T13:19:32;27.10;45.90
48686;DHT22;34485;51.536;3.816;2022-08-21T13:21:58;27.10;45.80
48686;DHT22;34485;51.536;3.816;2022-08-21T13:24:30;27.10;46.10
48686;DHT22;34485;51.536;3.816;2022-08-21T13:26:57;27.20;45.00
48686;DHT22;34485;51.536;3.816;2022-08-21T13:29:28;27.20;44.20
48686;DHT22;34485;51.536;3.816;2022-08-21T13:31:57;27.30;44.40
48686;DHT22;34485;51.536;3.816;2022-08-21T13:34:26;27.20;45.20
48686;DHT22;34485;51.536;3.816;2022-08-21T13:37:02;27.20;45.20
48686;DHT22;34485;51.536;3.816;2022-08-21T13:39:28;27.20;43.90
48686;DHT22;34485;51.536;3.816;2022-08-21T13:41:56;27.30;44.60
48686;DHT22;34485;51.536;3.816;2022-08-21T13:44:46;27.40;45.00
48686;DHT22;34485;51.536;3.816;2022-08-21T13:47:12;27.50;44.50
48686;DHT22;34485;51.536;3.816;2022-08-21T13:49:43;27.40;43.80
48686;DHT22;34485;51.536;3.816;2022-08-21T13:52:21;27.30;43.90
48686;DHT22;34485;51.536;3.816;2022-08-21T13:55:00;27.20;45.00
48686;DHT22;34485;51.536;3.816;2022-08-21T13:57:27;27.00;44.70
48686;DHT22;34485;51.536;3.816;2022-08-21T14:02:45;26.80;45.80
48686;DHT22;34485;51.536;3.816;2022-08-21T14:05:19;26.70;46.00
48686;DHT22;34485;51.536;3.816;2022-08-21T14:07:45;26.70;46.20
48686;DHT22;34485;51.536;3.816;2022-08-21T14:10:20;26.70;45.90
48686;DHT22;34485;51.536;3.816;2022-08-21T14:12:49;26.70;46.80
48686;DHT22;34485;51.536;3.816;2022-08-21T14:15:17;26.70;47.10
48686;DHT22;34485;51.536;3.816;2022-08-21T14:17:45;26.70;46.80
48686;DHT22;34485;51.536;3.816;2022-08-21T14:20:25;26.70;47.10
48686;DHT22;34485;51.536;3.816;2022-08-21T14:22:51;26.70;46.40
48686;DHT22;34485;51.536;3.816;2022-08-21T14:28:03;26.60;46.00
48686;DHT22;34485;51.536;3.816;2022-08-21T14:30:37;26.60;46.40
48686;DHT22;34485;51.536;3.816;2022-08-21T14:33:07;26.50;46.30
48686;DHT22;34485;51.536;3.816;2022-08-21T14:35:34;26.40;46.10
48686;DHT22;34485;51.536;3.816;2022-08-21T14:38:00;26.10;46.30
48686;DHT22;34485;51.536;3.816;2022-08-21T14:40:26;25.90;47.20
48686;DHT22;34485;51.536;3.816;2022-08-21T14:42:52;25.70;47.40
48686;DHT22;34485;51.536;3.816;2022-08-21T14:47:56;25.20;99.90
48686;DHT22;34485;51.536;3.816;2022-08-21T14:52:48;25.10;99.80
48686;DHT22;34485;51.536;3.816;2022-08-21T14:55:15;25.00;49.80
48686;DHT22;34485;51.536;3.816;2022-08-21T14:57:47;25.00;49.70
48686;DHT22;34485;51.536;3.816;2022-08-21T15:00:16;25.10;50.00
48686;DHT22;34485;51.536;3.816;2022-08-21T15:02:45;25.20;50.20
48686;DHT22;34485;51.536;3.816;2022-08-21T15:05:12;25.20;49.70
48686;DHT22;34485;51.536;3.816;2022-08-21T15:07:38;25.30;50.20
48686;DHT22;34485;51.536;3.816;2022-08-21T15:10:05;25.30;49.90
48686;DHT22;34485;51.536;3.816;2022-08-21T15:12:30;25.40;50.10
48686;DHT22;34485;51.536;3.816;2022-08-21T15:14:56;25.40;49.80
48686;DHT22;34485;51.536;3.816;2022-08-21T15:17:22;25.40;49.90
48686;DHT22;34485;51.536;3.816;2022-08-21T15:19:48;25.40;95.40
48686;DHT22;34485;51.536;3.816;2022-08-21T15:22:13;25.40;92.60
48686;DHT22;34485;51.536;3.816;2022-08-21T15:24:39;25.30;92.60
48686;DHT22;34485;51.536;3.816;2022-08-21T15:27:08;25.30;92.20
48686;DHT22;34485;51.536;3.816;2022-08-21T15:29:35;25.30;91.20
48686;DHT22;34485;51.536;3.816;2022-08-21T15:32:23;25.20;52.00
48686;DHT22;34485;51.536;3.816;2022-08-21T15:34:49;25.10;51.90
48686;DHT22;34485;51.536;3.816;2022-08-21T15:37:15;25.10;51.50
48686;DHT22;34485;51.536;3.816;2022-08-21T15:39:40;25.10;57.70
48686;DHT22;34485;51.536;3.816;2022-08-21T15:42:06;25.00;51.50
48686;DHT22;34485;51.536;3.816;2022-08-21T15:44:32;24.90;51.80
48686;DHT22;34485;51.536;3.816;2022-08-21T15:46:59;24.90;79.40
48686;DHT22;34485;51.536;3.816;2022-08-21T15:49:25;24.80;51.90
48686;DHT22;34485;51.536;3.816;2022-08-21T15:51:50;24.80;53.50
48686;DHT22;34485;51.536;3.816;2022-08-21T15:54:16;24.80;72.30
48686;DHT22;34485;51.536;3.816;2022-08-21T15:56:45;24.70;52.90
48686;DHT22;34485;51.536;3.816;2022-08-21T15:59:16;24.70;52.90
48686;DHT22;34485;51.536;3.816;2022-08-21T16:01:44;24.60;54.00
48686;DHT22;34485;51.536;3.816;2022-08-21T16:04:10;24.60;53.00
48686;DHT22;34485;51.536;3.816;2022-08-21T16:06:37;24.50;53.50
48686;DHT22;34485;51.536;3.816;2022-08-21T16:09:03;24.50;53.50
48686;DHT22;34485;51.536;3.816;2022-08-21T16:11:29;24.50;53.10
48686;DHT22;34485;51.536;3.816;2022-08-21T16:13:55;24.60;54.10
48686;DHT22;34485;51.536;3.816;2022-08-21T16:16:22;24.50;53.60
48686;DHT22;34485;51.536;3.816;2022-08-21T16:18:49;24.60;53.80
48686;DHT22;34485;51.536;3.816;2022-08-21T16:21:15;24.60;54.00
48686;DHT22;34485;51.536;3.816;2022-08-21T16:23:41;24.60;52.70
48686;DHT22;34485;51.536;3.816;2022-08-21T16:26:08;24.60;53.10
48686;DHT22;34485;51.536;3.816;2022-08-21T16:28:36;24.60;52.40
48686;DHT22;34485;51.536;3.816;2022-08-21T16:31:02;24.60;52.10
48686;DHT22;34485;51.536;3.816;2022-08-21T16:33:40;24.60;52.70
48686;DHT22;34485;51.536;3.816;2022-08-21T16:36:07;24.50;53.40
48686;DHT22;34485;51.536;3.816;2022-08-21T16:38:34;24.50;53.50
48686;DHT22;34485;51.536;3.816;2022-08-21T16:41:06;24.50;53.90
48686;DHT22;34485;51.536;3.816;2022-08-21T16:43:33;24.60;81.70
48686;DHT22;34485;51.536;3.816;2022-08-21T16:46:00;24.60;53.90
48686;DHT22;34485;51.536;3.816;2022-08-21T16:48:26;24.70;54.70
48686;DHT22;34485;51.536;3.816;2022-08-21T16:50:54;24.70;52.80
48686;DHT22;34485;51.536;3.816;2022-08-21T16:53:20;24.80;53.10
48686;DHT22;34485;51.536;3.816;2022-08-21T16:55:46;24.80;53.20
48686;DHT22;34485;51.536;3.816;2022-08-21T16:58:39;24.70;53.10
48686;DHT22;34485;51.536;3.816;2022-08-21T17:01:11;24.70;55.40
48686;DHT22;34485;51.536;3.816;2022-08-21T17:03:43;24.70;53.80
48686;DHT22;34485;51.536;3.816;2022-08-21T17:06:10;24.80;60.70
48686;DHT22;34485;51.536;3.816;2022-08-21T17:08:37;24.60;53.30
48686;DHT22;34485;51.536;3.816;2022-08-21T17:11:04;24.60;53.90
48686;DHT22;34485;51.536;3.816;2022-08-21T17:13:30;24.50;53.40